This is the latest recevied weather packets stored in our database for station/object WX5HOT. If no packets are shown the sender has not sent any weather packets the latest 10 day(s).
| Time | Temp. | Humidity | Pressure | Rain* | Wind** | Luminosity | Snow |
|---|---|---|---|---|---|---|---|
| 1777395018 | 21.11° C | 99% | 1065.3 hPa | 0 mm | - | 33 W/m² | - |
| 1777394714 | 21.11° C | 99% | 1065.3 hPa | 0 mm | - | 50 W/m² | - |
| 1777394411 | 21.11° C | 99% | 1065.4 hPa | 0 mm | - | 44 W/m² | - |
| 1777394108 | 21.11° C | 99% | 1065.6 hPa | 0 mm | - | 26 W/m² | - |
| 1777393804 | 21.11° C | 99% | 1065.6 hPa | 0 mm | - | 22 W/m² | - |
| 1777393502 | 21.11° C | 99% | 1065.5 hPa | 0 mm | - | 25 W/m² | - |
| 1777393198 | 21.11° C | 99% | 1065.5 hPa | 0 mm | - | 29 W/m² | - |
| 1777392895 | 21.11° C | 99% | 1065.4 hPa | 0 mm | - | 55 W/m² | - |
| 1777392590 | 21.11° C | 99% | 1065.4 hPa | 0 mm | - | 78 W/m² | - |
| 1777392287 | 21.11° C | 99% | 1065.3 hPa | 0 mm | - | 58 W/m² | - |
| 1777391987 | 21.11° C | 99% | 1065.4 hPa | 0 mm | - | 64 W/m² | - |
| 1777391682 | 21.11° C | 99% | 1065.6 hPa | 0 mm | - | 54 W/m² | - |
| 1777391378 | 21.11° C | 99% | 1065.7 hPa | 0 mm | - | 36 W/m² | - |
| 1777391076 | 21.11° C | 99% | 1065.7 hPa | 0 mm | - | 40 W/m² | - |
| 1777390771 | 21.11° C | 99% | 1065.4 hPa | 0 mm | - | 43 W/m² | - |
| 1777390468 | 21.11° C | 99% | 1065.5 hPa | 0 mm | - | 49 W/m² | - |
| 1777390165 | 21.11° C | 99% | 1065.5 hPa | 0 mm | - | 33 W/m² | - |
| 1777389861 | 21.11° C | 99% | 1065.4 hPa | 0 mm | - | 52 W/m² | - |
| 1777389558 | 21.11° C | 99% | 1065.5 hPa | 0 mm | - | 68 W/m² | - |
| 1777389255 | 21.11° C | 99% | 1065.6 hPa | 0 mm | - | 86 W/m² | - |
| 1777388953 | 21.11° C | 99% | 1065.6 hPa | 0 mm | - | 60 W/m² | - |
| 1777388649 | 21.11° C | 99% | 1065.7 hPa | 0 mm | - | 66 W/m² | - |
| 1777388346 | 21.11° C | 99% | 1065.3 hPa | 0 mm | - | 115 W/m² | - |
| 1777388045 | 21.11° C | 99% | 1065.4 hPa | 0 mm | - | 82 W/m² | - |
| 1777387742 | 21.11° C | 99% | 1065.6 hPa | 0 mm | - | 69 W/m² | - |
* Rain latest hour (hover to see other rain measurements)
** Current wind speed in m/s (hover to see current wind gust speed)